createdAt,value
2022-08-14T00:00:41.997Z,26
2022-08-14T00:01:58.139Z,26
2022-08-14T00:03:05.665Z,26
2022-08-14T00:04:45.381Z,25.9
2022-08-14T00:06:00.827Z,25.9
2022-08-14T00:07:31.085Z,25.9
2022-08-14T00:08:45.935Z,25.8
2022-08-14T00:10:53.708Z,25.8
2022-08-14T00:11:57.325Z,25.8
2022-08-14T00:13:06.926Z,25.7
2022-08-14T00:14:18.256Z,25.7
2022-08-14T00:15:22.440Z,25.7
2022-08-14T00:16:45.509Z,25.7
2022-08-14T00:17:54.504Z,25.7
2022-08-14T00:19:21.712Z,25.7
2022-08-14T00:20:43.552Z,25.7
2022-08-14T00:21:51.429Z,25.6
2022-08-14T00:23:12.700Z,25.6
2022-08-14T00:24:31.477Z,25.6
2022-08-14T00:25:43.474Z,25.6
2022-08-14T00:27:24.696Z,25.6
2022-08-14T00:28:37.276Z,25.6
2022-08-14T00:29:43.331Z,25.5
2022-08-14T00:30:45.676Z,25.5
2022-08-14T00:31:57.343Z,25.5
2022-08-14T00:33:06.171Z,25.5
2022-08-14T00:34:48.219Z,25.5
2022-08-14T00:36:50.001Z,25.5
2022-08-14T00:37:53.355Z,25.5
2022-08-14T00:38:57.581Z,25.5
2022-08-14T00:40:00.793Z,25.5
2022-08-14T00:41:42.761Z,25.5
2022-08-14T00:43:15.095Z,25.5
2022-08-14T00:44:33.654Z,25.5
2022-08-14T00:45:38.306Z,25.5
2022-08-14T00:46:59.276Z,25.5
2022-08-14T00:48:04.813Z,25.5
2022-08-14T00:49:14.584Z,25.5
2022-08-14T00:50:22.131Z,25.5
2022-08-14T00:51:41.563Z,25.5
2022-08-14T00:52:45.384Z,25.5
2022-08-14T00:53:53.864Z,25.5
2022-08-14T00:55:01.529Z,25.5
2022-08-14T00:56:09.044Z,25.5
2022-08-14T00:57:18.269Z,25.5
2022-08-14T00:58:33.611Z,25.5
2022-08-14T00:59:36.014Z,25.5
2022-08-14T01:00:58.342Z,25.5
2022-08-14T01:02:04.952Z,25.5
2022-08-14T01:03:12.971Z,25.5
2022-08-14T01:04:55.285Z,25.5
2022-08-14T01:06:00.922Z,25.6
2022-08-14T01:07:10.316Z,25.5
2022-08-14T01:09:00.240Z,25.6
2022-08-14T01:10:04.700Z,25.6
2022-08-14T01:11:07.188Z,25.5
2022-08-14T01:12:11.811Z,25.5
2022-08-14T01:13:43.614Z,25.5
2022-08-14T01:15:15.048Z,25.5
2022-08-14T01:16:31.676Z,25.5
2022-08-14T01:17:34.425Z,25.5
2022-08-14T01:18:36.212Z,25.5
2022-08-14T01:19:43.645Z,25.5
2022-08-14T01:20:57.252Z,25.5
2022-08-14T01:22:02.428Z,25.5
2022-08-14T01:23:07.986Z,25.5
2022-08-14T01:24:13.978Z,25.5
2022-08-14T01:25:40.027Z,25.5
2022-08-14T01:26:51.248Z,25.5
2022-08-14T01:27:59.904Z,25.5
2022-08-14T01:29:04.135Z,25.5
2022-08-14T01:30:07.347Z,25.5
2022-08-14T01:31:10.424Z,25.5
2022-08-14T01:32:23.625Z,25.5
2022-08-14T01:36:04.274Z,25.5
2022-08-14T01:37:26.239Z,25.4
2022-08-14T01:38:28.870Z,25.3
2022-08-14T01:39:33.327Z,25.3
2022-08-14T01:40:42.449Z,25.2
2022-08-14T01:41:46.990Z,25.2
2022-08-14T01:42:53.098Z,25.2
2022-08-14T01:43:59.608Z,25.1
2022-08-14T01:45:02.778Z,25.2
2022-08-14T01:46:10.914Z,25.1
2022-08-14T01:47:38.502Z,25.1
2022-08-14T01:48:41.608Z,25.1
2022-08-14T01:50:02.386Z,25.1
2022-08-14T01:51:20.790Z,25.1
2022-08-14T01:53:02.210Z,25
2022-08-14T01:54:14.556Z,25
2022-08-14T01:55:24.814Z,25
2022-08-14T01:56:39.930Z,24.9
2022-08-14T01:58:28.709Z,25
2022-08-14T01:59:43.959Z,24.9
2022-08-14T02:00:49.480Z,24.9
2022-08-14T02:02:00.069Z,24.8
2022-08-14T02:03:22.728Z,24.9
2022-08-14T02:04:57.987Z,24.8
2022-08-14T02:06:34.306Z,24.8
2022-08-14T02:08:10.286Z,24.8
2022-08-14T02:09:40.215Z,24.7
2022-08-14T02:10:48.516Z,24.7
2022-08-14T02:11:56.471Z,24.7
2022-08-14T02:13:00.488Z,24.7
2022-08-14T02:14:15.030Z,24.7
2022-08-14T02:15:44.122Z,24.7
2022-08-14T02:16:51.105Z,24.6
2022-08-14T02:17:59.493Z,24.6
2022-08-14T02:19:02.999Z,24.5
2022-08-14T02:20:05.012Z,24.5
2022-08-14T02:21:08.257Z,24.5
2022-08-14T02:22:15.645Z,24.5
2022-08-14T02:23:54.401Z,24.5
2022-08-14T02:24:58.887Z,24.5
2022-08-14T02:26:31.152Z,24.5
2022-08-14T02:30:04.357Z,24.5
2022-08-14T02:31:10.416Z,24.4
2022-08-14T02:32:44.826Z,24.4
2022-08-14T02:33:51.811Z,24.4
2022-08-14T02:34:55.707Z,24.4
2022-08-14T02:37:07.368Z,24.4
2022-08-14T02:38:35.697Z,24.4
2022-08-14T02:39:38.544Z,24.4
2022-08-14T02:40:45.702Z,24.3
2022-08-14T02:41:59.185Z,24.3
2022-08-14T02:43:08.893Z,24.3
2022-08-14T02:44:15.512Z,24.3
2022-08-14T02:45:48.235Z,24.3
2022-08-14T02:47:02.109Z,24.3
2022-08-14T02:49:06.785Z,24.3
2022-08-14T02:50:11.978Z,24.2
2022-08-14T02:51:19.678Z,24.2
2022-08-14T02:53:03.610Z,24.2
2022-08-14T02:54:09.441Z,24.2
2022-08-14T02:55:22.306Z,24.2
2022-08-14T02:57:40.914Z,24.2
2022-08-14T02:58:50.036Z,24.2
2022-08-14T03:00:10.339Z,24.1
2022-08-14T03:01:44.011Z,24.1
2022-08-14T03:03:00.694Z,24.1
2022-08-14T03:04:10.892Z,24.1
2022-08-14T03:05:15.086Z,24.1
2022-08-14T03:07:06.822Z,24.1
2022-08-14T03:08:16.260Z,24.1
2022-08-14T03:09:23.408Z,24
2022-08-14T03:10:34.362Z,24
2022-08-14T03:11:37.070Z,24
2022-08-14T03:12:39.238Z,24
2022-08-14T03:13:42.739Z,24
2022-08-14T03:14:45.580Z,24
2022-08-14T03:15:58.457Z,24
2022-08-14T03:17:10.661Z,24
2022-08-14T03:18:32.761Z,23.9
2022-08-14T03:19:36.324Z,23.9
2022-08-14T03:20:39.830Z,23.9
2022-08-14T03:21:41.998Z,23.9
2022-08-14T03:22:51.309Z,23.9
2022-08-14T03:23:53.698Z,23.9
2022-08-14T03:24:57.606Z,23.9
2022-08-14T03:26:00.673Z,23.9
2022-08-14T03:27:08.641Z,23.8
2022-08-14T03:28:33.742Z,23.8
2022-08-14T03:29:45.373Z,23.8
2022-08-14T03:30:55.143Z,23.8
2022-08-14T03:32:04.666Z,23.8
2022-08-14T03:33:11.982Z,23.8
2022-08-14T03:34:55.274Z,23.8
2022-08-14T03:39:21.021Z,23.7
2022-08-14T03:40:31.099Z,23.7
2022-08-14T03:41:36.579Z,23.7
2022-08-14T03:42:46.137Z,23.6
2022-08-14T03:45:35.296Z,23.7
2022-08-14T03:46:56.761Z,23.7
2022-08-14T03:48:02.692Z,23.6
2022-08-14T03:49:46.030Z,23.6
2022-08-14T03:50:56.887Z,23.6
2022-08-14T03:52:02.788Z,23.6
2022-08-14T03:53:57.085Z,23.6
2022-08-14T03:54:59.909Z,23.6
2022-08-14T03:56:04.652Z,23.6
2022-08-14T03:57:10.289Z,23.6
2022-08-14T03:58:36.992Z,23.6
2022-08-14T03:59:42.876Z,23.6
2022-08-14T04:00:46.151Z,23.6
2022-08-14T04:02:33.469Z,23.5
2022-08-14T04:03:58.116Z,23.5
2022-08-14T04:05:17.031Z,23.5
2022-08-14T04:06:31.552Z,23.5
2022-08-14T04:08:31.724Z,23.5
2022-08-14T04:09:34.725Z,23.4
2022-08-14T04:10:39.908Z,23.4
2022-08-14T04:11:42.798Z,23.4
2022-08-14T04:12:52.521Z,23.4
2022-08-14T04:14:07.567Z,23.4
2022-08-14T04:15:10.399Z,23.4
2022-08-14T04:16:13.517Z,23.4
2022-08-14T04:17:18.958Z,23.4
2022-08-14T04:18:25.917Z,23.4
2022-08-14T04:19:37.049Z,23.3
2022-08-14T04:20:56.065Z,23.4
2022-08-14T04:22:04.937Z,23.3
2022-08-14T04:23:29.251Z,23.4
2022-08-14T04:24:39.950Z,23.3
2022-08-14T04:25:47.023Z,23.3
2022-08-14T04:26:50.125Z,23.3
2022-08-14T04:28:04.263Z,23.3
2022-08-14T04:29:16.562Z,23.4
2022-08-14T04:30:33.752Z,23.4
2022-08-14T04:33:18.554Z,23.4
2022-08-14T04:34:29.906Z,23.4
2022-08-14T04:35:57.821Z,23.4
2022-08-14T04:37:00.543Z,23.4
2022-08-14T04:38:40.026Z,23.4
2022-08-14T04:39:57.817Z,23.4
2022-08-14T04:41:11.150Z,23.4
2022-08-14T04:42:15.041Z,23.4
2022-08-14T04:43:21.859Z,23.4
2022-08-14T04:44:37.834Z,23.5
2022-08-14T04:45:40.403Z,23.5
2022-08-14T04:46:58.305Z,23.5
2022-08-14T04:48:00.377Z,23.5
2022-08-14T04:49:08.214Z,23.5
2022-08-14T04:50:17.010Z,23.5
2022-08-14T04:51:21.335Z,23.5
2022-08-14T04:52:28.026Z,23.5
2022-08-14T04:53:43.676Z,23.5
2022-08-14T04:54:49.399Z,23.5
2022-08-14T04:55:52.246Z,23.5
2022-08-14T04:56:56.538Z,23.5
2022-08-14T04:58:01.548Z,23.5
2022-08-14T04:59:35.842Z,23.5
2022-08-14T05:00:38.525Z,23.5
2022-08-14T05:01:58.069Z,23.5
2022-08-14T05:03:01.437Z,23.5
2022-08-14T05:04:19.667Z,23.5
2022-08-14T05:05:24.221Z,23.5
2022-08-14T05:06:40.061Z,23.6
2022-08-14T05:08:02.239Z,23.6
2022-08-14T05:10:24.804Z,23.6
2022-08-14T05:11:37.660Z,23.6
2022-08-14T05:13:35.677Z,23.6
2022-08-14T05:15:57.908Z,23.6
2022-08-14T05:17:02.750Z,23.6
2022-08-14T05:19:25.170Z,23.7
2022-08-14T05:22:59.296Z,23.7
2022-08-14T05:24:04.597Z,23.8
2022-08-14T05:25:20.852Z,23.8
2022-08-14T05:26:25.305Z,23.8
2022-08-14T05:27:31.918Z,23.9
2022-08-14T05:28:34.761Z,23.9
2022-08-14T05:29:38.381Z,23.9
2022-08-14T05:30:42.829Z,23.9
2022-08-14T05:31:57.484Z,23.9
2022-08-14T05:33:01.573Z,23.9
2022-08-14T05:34:03.752Z,23.9
2022-08-14T05:35:05.548Z,23.9
2022-08-14T05:36:17.391Z,23.9
2022-08-14T05:37:30.579Z,23.9
2022-08-14T05:38:36.087Z,24
2022-08-14T05:39:41.497Z,24
2022-08-14T05:40:44.110Z,24
2022-08-14T05:41:54.678Z,24
2022-08-14T05:42:58.852Z,24
2022-08-14T05:44:01.200Z,24.1
2022-08-14T05:45:04.981Z,24.1
2022-08-14T05:46:16.583Z,24.2
2022-08-14T05:47:20.072Z,24.2
2022-08-14T05:48:43.861Z,24.2
2022-08-14T05:49:51.857Z,24.3
2022-08-14T05:50:54.591Z,24.3
2022-08-14T05:52:02.432Z,24.4
2022-08-14T05:53:22.540Z,24.4
2022-08-14T05:54:35.800Z,24.4
2022-08-14T05:55:45.447Z,24.4
2022-08-14T05:56:55.358Z,24.5
2022-08-14T05:58:00.165Z,24.5
2022-08-14T05:59:02.800Z,24.6
2022-08-14T06:00:05.805Z,24.6
2022-08-14T06:01:32.867Z,24.6
2022-08-14T06:02:37.916Z,24.6
2022-08-14T06:03:44.304Z,24.7
2022-08-14T06:04:59.442Z,24.8
2022-08-14T06:06:03.478Z,24.8
2022-08-14T06:07:06.574Z,24.8
2022-08-14T06:08:42.086Z,24.8
2022-08-14T06:09:53.173Z,24.8
2022-08-14T06:10:55.824Z,24.9
2022-08-14T06:11:59.957Z,24.9
2022-08-14T06:13:03.479Z,25
2022-08-14T06:14:24.325Z,25
2022-08-14T06:15:31.235Z,25
2022-08-14T06:16:33.780Z,25
2022-08-14T06:18:00.169Z,25
2022-08-14T06:19:06.119Z,25
2022-08-14T06:20:22.533Z,25
2022-08-14T06:21:26.680Z,25
2022-08-14T06:22:38.201Z,25.1
2022-08-14T06:23:42.064Z,25.1
2022-08-14T06:24:44.758Z,25.1
2022-08-14T06:25:53.813Z,25.2
2022-08-14T06:27:10.838Z,25.2
2022-08-14T06:28:28.999Z,25.2
2022-08-14T06:29:35.374Z,25.2
2022-08-14T06:30:48.204Z,25.3
2022-08-14T06:32:39.377Z,25.3
2022-08-14T06:35:14.067Z,25.3
2022-08-14T06:36:18.958Z,25.4
2022-08-14T06:37:22.552Z,25.5
2022-08-14T06:38:26.896Z,25.5
2022-08-14T06:39:38.546Z,25.5
2022-08-14T06:40:46.639Z,25.6
2022-08-14T06:42:00.485Z,25.7
2022-08-14T06:43:04.425Z,25.7
2022-08-14T06:44:10.452Z,25.7
2022-08-14T06:45:18.323Z,25.8
2022-08-14T06:46:37.839Z,25.9
2022-08-14T06:47:44.631Z,25.9
2022-08-14T06:48:49.991Z,26
2022-08-14T06:49:58.923Z,26
2022-08-14T06:51:01.979Z,26.1
2022-08-14T06:52:06.298Z,26.1
2022-08-14T06:53:11.046Z,26.1
2022-08-14T06:54:13.198Z,26.1
2022-08-14T06:55:27.655Z,26.1
2022-08-14T06:56:32.875Z,26.1
2022-08-14T06:57:38.575Z,26.2
2022-08-14T06:58:43.197Z,26.2
2022-08-14T06:59:45.330Z,26.2
2022-08-14T07:00:50.879Z,26.2
2022-08-14T07:01:57.762Z,26.3
2022-08-14T07:03:00.961Z,26.3
2022-08-14T07:04:04.269Z,26.3
2022-08-14T07:05:25.744Z,26.4
2022-08-14T07:06:48.246Z,26.4
2022-08-14T07:08:00.798Z,26.4
2022-08-14T07:09:03.703Z,26.5
2022-08-14T07:10:07.456Z,26.6
2022-08-14T07:11:20.549Z,26.6
2022-08-14T07:13:05.265Z,26.7
2022-08-14T07:14:16.401Z,26.7
2022-08-14T07:15:18.699Z,26.8
2022-08-14T07:16:28.007Z,26.8
2022-08-14T07:17:37.009Z,26.9
2022-08-14T07:18:51.315Z,26.9
2022-08-14T07:19:53.663Z,26.9
2022-08-14T07:20:58.955Z,27
2022-08-14T07:22:20.361Z,27.1
2022-08-14T07:23:24.836Z,27.1
2022-08-14T07:24:32.790Z,27.2
2022-08-14T07:25:38.353Z,27.2
2022-08-14T07:26:45.425Z,27.2
2022-08-14T07:27:48.269Z,27.3
2022-08-14T07:28:51.740Z,27.3
2022-08-14T07:29:57.014Z,27.4
2022-08-14T07:31:06.086Z,27.4
2022-08-14T07:32:11.381Z,27.5
2022-08-14T07:33:43.469Z,27.5
2022-08-14T07:34:55.966Z,27.6
2022-08-14T07:36:01.717Z,27.6
2022-08-14T07:37:34.350Z,27.6
2022-08-14T07:38:39.038Z,27.6
2022-08-14T07:39:44.818Z,27.7
2022-08-14T07:40:46.805Z,27.7
2022-08-14T07:41:57.572Z,27.7
2022-08-14T07:43:16.492Z,27.8
2022-08-14T07:44:48.880Z,27.8
2022-08-14T07:45:57.278Z,27.8
2022-08-14T07:46:59.633Z,27.9
2022-08-14T07:48:09.339Z,27.9
2022-08-14T07:49:27.481Z,27.9
2022-08-14T07:50:37.876Z,28
2022-08-14T07:51:40.167Z,28
2022-08-14T07:52:46.512Z,28
2022-08-14T07:53:57.636Z,28.1
2022-08-14T07:55:00.753Z,28.1
2022-08-14T07:56:49.937Z,28.1
2022-08-14T07:58:51.475Z,28.1
2022-08-14T08:00:01.520Z,28.1
2022-08-14T08:01:05.750Z,28.1
2022-08-14T08:02:22.382Z,28.2
2022-08-14T08:03:30.657Z,28.2
2022-08-14T08:04:39.003Z,28.2
2022-08-14T08:05:44.530Z,28.2
2022-08-14T08:06:51.938Z,28.3
2022-08-14T08:07:55.367Z,28.3
2022-08-14T08:09:04.079Z,28.3
2022-08-14T08:10:17.742Z,28.4
2022-08-14T08:12:17.297Z,28.4
2022-08-14T08:13:29.443Z,28.5
2022-08-14T08:15:03.353Z,28.5
2022-08-14T08:16:10.171Z,28.5
2022-08-14T08:17:19.215Z,28.6
2022-08-14T08:18:31.350Z,28.6
2022-08-14T08:19:44.131Z,28.6
2022-08-14T08:20:53.881Z,28.6
2022-08-14T08:22:02.508Z,28.7
2022-08-14T08:23:08.015Z,28.7
2022-08-14T08:24:58.121Z,28.8
2022-08-14T08:26:02.144Z,28.9
2022-08-14T08:27:04.204Z,28.9
2022-08-14T08:28:27.602Z,29
2022-08-14T08:29:32.012Z,29
2022-08-14T08:30:34.368Z,29
2022-08-14T08:31:37.712Z,29.1
2022-08-14T08:32:42.209Z,29.1
2022-08-14T08:33:50.468Z,29.2
2022-08-14T08:34:53.868Z,29.2
2022-08-14T08:35:56.378Z,29.2
2022-08-14T08:37:07.753Z,29.2
2022-08-14T08:40:02.075Z,29.3
2022-08-14T08:41:12.189Z,29.3
2022-08-14T08:42:16.084Z,29.4
2022-08-14T08:43:17.897Z,29.4
2022-08-14T08:44:35.111Z,29.5
2022-08-14T08:45:37.119Z,29.5
2022-08-14T08:46:43.522Z,29.6
2022-08-14T08:47:51.635Z,29.7
2022-08-14T08:50:01.278Z,29.8
2022-08-14T08:51:35.058Z,29.9
2022-08-14T08:52:52.645Z,30
2022-08-14T08:53:57.769Z,30
2022-08-14T08:55:05.329Z,30.1
2022-08-14T08:56:40.665Z,30.2
2022-08-14T08:57:48.013Z,30.3
2022-08-14T08:58:52.310Z,30.3
2022-08-14T08:59:59.925Z,30.4
2022-08-14T09:01:29.111Z,30.5
2022-08-14T09:02:34.488Z,30.6
2022-08-14T09:03:44.903Z,30.6
2022-08-14T09:04:54.509Z,30.7
2022-08-14T09:05:56.862Z,30.7
2022-08-14T09:07:11.617Z,30.8
2022-08-14T09:08:33.490Z,30.8
2022-08-14T09:10:01.137Z,30.9
2022-08-14T09:11:21.632Z,31
2022-08-14T09:12:33.600Z,31.1
2022-08-14T09:13:35.941Z,31.1
2022-08-14T09:14:40.443Z,31.2
2022-08-14T09:15:44.260Z,31.2
2022-08-14T09:16:50.899Z,31.3
2022-08-14T09:17:56.642Z,31.4
2022-08-14T09:19:00.337Z,31.4
2022-08-14T09:20:05.566Z,31.5
2022-08-14T09:21:32.615Z,31.5
2022-08-14T09:22:50.274Z,31.6
2022-08-14T09:24:44.302Z,31.6
2022-08-14T09:26:21.413Z,31.7
2022-08-14T09:27:35.493Z,31.8
2022-08-14T09:28:38.158Z,31.9
2022-08-14T09:29:54.706Z,31.9
2022-08-14T09:31:18.362Z,32
2022-08-14T09:33:00.886Z,32.1
2022-08-14T09:34:29.102Z,32.2
2022-08-14T09:35:34.468Z,32.3
2022-08-14T09:36:37.507Z,32.4
2022-08-14T09:37:50.085Z,32.4
2022-08-14T09:38:58.264Z,32.5
2022-08-14T09:40:04.458Z,32.6
2022-08-14T09:41:12.298Z,32.7
2022-08-14T09:42:34.420Z,32.7
2022-08-14T09:43:52.533Z,32.8
2022-08-14T09:45:02.067Z,32.9
2022-08-14T09:46:25.911Z,33
2022-08-14T09:47:28.935Z,33
2022-08-14T09:48:32.900Z,33.1
2022-08-14T09:49:41.128Z,33.2
2022-08-14T09:50:43.715Z,33.3
2022-08-14T09:52:01.071Z,33.3
2022-08-14T09:54:24.113Z,33.4
2022-08-14T09:55:43.067Z,33.5
2022-08-14T09:56:59.460Z,33.5
2022-08-14T09:58:04.532Z,33.6
2022-08-14T09:59:08.159Z,33.6
2022-08-14T10:00:31.431Z,33.7
2022-08-14T10:01:37.865Z,33.7
2022-08-14T10:02:54.658Z,33.8
2022-08-14T10:04:00.776Z,33.9
2022-08-14T10:05:41.657Z,33.9
2022-08-14T10:06:45.569Z,34.1
2022-08-14T10:07:59.238Z,34.1
2022-08-14T10:09:35.778Z,34.2
2022-08-14T10:11:03.375Z,34.3
2022-08-14T10:12:06.117Z,34.4
2022-08-14T10:13:56.906Z,34.5
2022-08-14T10:15:03.110Z,34.6
2022-08-14T10:16:33.040Z,34.7
2022-08-14T10:17:40.205Z,34.8
2022-08-14T10:18:50.729Z,34.9
2022-08-14T10:19:59.407Z,35
2022-08-14T10:21:10.349Z,35
2022-08-14T10:23:18.278Z,35.2
2022-08-14T10:24:36.584Z,35.2
2022-08-14T10:25:42.856Z,35.4
2022-08-14T10:26:49.498Z,35.5
2022-08-14T10:27:57.737Z,35.5
2022-08-14T10:29:25.173Z,35.6
2022-08-14T10:30:35.441Z,35.6
2022-08-14T10:31:46.071Z,35.7
2022-08-14T10:32:58.916Z,35.8
2022-08-14T10:34:14.008Z,35.8
2022-08-14T10:35:17.049Z,35.9
2022-08-14T10:36:44.811Z,36.1
2022-08-14T10:38:08.045Z,36.2
2022-08-14T10:39:13.190Z,36.1
2022-08-14T10:41:02.155Z,36.2
2022-08-14T10:42:21.733Z,36.5
2022-08-14T10:43:27.280Z,36.5
2022-08-14T10:44:33.585Z,36.3
2022-08-14T10:46:03.481Z,36.4
2022-08-14T10:49:49.137Z,36.4
2022-08-14T10:50:59.895Z,36.5
2022-08-14T10:52:05.836Z,36.5
2022-08-14T10:53:11.828Z,36.6
2022-08-14T10:54:40.475Z,36.6
2022-08-14T10:56:04.096Z,36.7
2022-08-14T10:57:38.878Z,36.7
2022-08-14T10:58:44.747Z,36.8
2022-08-14T10:59:47.603Z,36.9
2022-08-14T11:00:57.222Z,36.9
2022-08-14T11:01:59.307Z,36.9
2022-08-14T11:03:03.512Z,36.9
2022-08-14T11:04:09.227Z,36.9
2022-08-14T11:05:14.953Z,37
2022-08-14T11:06:18.129Z,37
2022-08-14T11:07:25.211Z,37.1
2022-08-14T11:08:28.834Z,37.2
2022-08-14T11:09:33.736Z,37.4
2022-08-14T11:10:38.499Z,37.4
2022-08-14T11:11:45.583Z,37.5
2022-08-14T11:13:44.693Z,37.5
2022-08-14T11:14:49.821Z,37.6
2022-08-14T11:16:04.590Z,37.7
2022-08-14T11:17:11.755Z,37.7
2022-08-14T11:18:40.284Z,37.8
2022-08-14T11:20:00.605Z,37.8
2022-08-14T11:21:03.281Z,37.9
2022-08-14T11:22:53.108Z,38
2022-08-14T11:24:56.020Z,38.1
2022-08-14T11:25:59.976Z,38.1
2022-08-14T11:27:04.919Z,38.2
2022-08-14T11:28:18.900Z,38.3
2022-08-14T11:30:53.429Z,38.3
2022-08-14T11:31:57.939Z,38.2
2022-08-14T11:33:01.140Z,38
2022-08-14T11:34:35.053Z,38
2022-08-14T11:35:49.004Z,37.9
2022-08-14T11:37:36.484Z,37.8
2022-08-14T11:38:54.760Z,37.7
2022-08-14T11:39:59.362Z,37.5
2022-08-14T11:41:02.760Z,37.4
2022-08-14T11:43:00.006Z,37.4
2022-08-14T11:44:45.232Z,37.4
2022-08-14T11:46:30.076Z,37.4
2022-08-14T11:49:06.172Z,37.5
2022-08-14T11:50:34.190Z,37.5
2022-08-14T11:51:54.890Z,37.7
2022-08-14T11:53:05.115Z,37.8
2022-08-14T11:54:34.592Z,37.9
2022-08-14T11:55:41.131Z,38
2022-08-14T11:56:43.672Z,38
2022-08-14T11:58:02.069Z,38
2022-08-14T11:59:11.548Z,38
2022-08-14T12:00:32.952Z,38.1
2022-08-14T12:01:50.441Z,38
2022-08-14T12:03:04.971Z,38
2022-08-14T12:04:34.380Z,38.1
2022-08-14T12:05:40.241Z,38.2
2022-08-14T12:06:51.897Z,38.2
2022-08-14T12:07:55.768Z,38.3
2022-08-14T12:09:02.809Z,38.3
2022-08-14T12:10:43.475Z,38.4
2022-08-14T12:11:57.305Z,38.4
2022-08-14T12:13:01.675Z,38.4
2022-08-14T12:14:07.138Z,38.5
2022-08-14T12:15:51.831Z,38.5
2022-08-14T12:16:59.657Z,38.6
2022-08-14T12:18:11.661Z,38.6
2022-08-14T12:19:23.189Z,38.6
2022-08-14T12:20:32.896Z,38.6
2022-08-14T12:21:35.791Z,38.5
2022-08-14T12:22:44.416Z,38.4
2022-08-14T12:24:02.802Z,38.4
2022-08-14T12:25:12.226Z,38.3
2022-08-14T12:26:41.701Z,38.3
2022-08-14T12:28:01.900Z,38.3
2022-08-14T12:29:09.509Z,38.3
2022-08-14T12:30:12.855Z,38.3
2022-08-14T12:31:51.846Z,38.3
2022-08-14T12:32:57.232Z,38.3
2022-08-14T12:34:00.644Z,38.3
2022-08-14T12:35:12.737Z,38.3
2022-08-14T12:36:21.911Z,38.4
2022-08-14T12:37:24.585Z,38.4
2022-08-14T12:38:31.126Z,38.4
2022-08-14T12:39:41.665Z,38.5
2022-08-14T12:40:48.778Z,38.5
2022-08-14T12:41:57.513Z,38.6
2022-08-14T12:43:02.062Z,38.6
2022-08-14T12:44:08.735Z,38.6
2022-08-14T12:45:17.879Z,38.7
2022-08-14T12:46:29.831Z,38.7
2022-08-14T12:47:33.373Z,38.7
2022-08-14T12:48:36.314Z,38.7
2022-08-14T12:49:40.299Z,38.8
2022-08-14T12:50:50.730Z,38.8
2022-08-14T12:51:53.304Z,38.8
2022-08-14T12:53:17.694Z,38.9
2022-08-14T12:54:32.707Z,39
2022-08-14T12:56:34.519Z,39
2022-08-14T12:57:54.311Z,39.1
2022-08-14T12:58:57.360Z,39.2
2022-08-14T13:00:24.268Z,39.2
2022-08-14T13:01:27.404Z,39.2
2022-08-14T13:02:32.746Z,39.2
2022-08-14T13:03:35.495Z,39.3
2022-08-14T13:04:46.377Z,39.3
2022-08-14T13:05:49.430Z,39.2
2022-08-14T13:06:53.173Z,39.2
2022-08-14T13:07:57.033Z,39.1
2022-08-14T13:09:11.715Z,39.1
2022-08-14T13:10:53.135Z,39.1
2022-08-14T13:12:56.762Z,39
2022-08-14T13:14:30.804Z,39
2022-08-14T13:15:34.920Z,38.9
2022-08-14T13:16:39.102Z,38.9
2022-08-14T13:17:42.239Z,38.9
2022-08-14T13:18:58.427Z,38.9
2022-08-14T13:20:01.923Z,38.8
2022-08-14T13:22:19.615Z,38.8
2022-08-14T13:23:50.636Z,38.8
2022-08-14T13:24:53.304Z,38.8
2022-08-14T13:25:57.387Z,38.8
2022-08-14T13:27:00.685Z,38.7
2022-08-14T13:28:02.783Z,38.7
2022-08-14T13:29:47.361Z,38.7
2022-08-14T13:30:55.080Z,38.7
2022-08-14T13:32:01.439Z,38.7
2022-08-14T13:33:03.579Z,38.7
2022-08-14T13:34:08.722Z,38.7
2022-08-14T13:35:19.139Z,38.7
2022-08-14T13:37:04.453Z,38.7
2022-08-14T13:38:14.148Z,38.7
2022-08-14T13:39:23.867Z,38.8
2022-08-14T13:40:27.422Z,38.9
2022-08-14T13:41:37.229Z,38.9
2022-08-14T13:42:39.349Z,39
2022-08-14T13:44:01.253Z,39.1
2022-08-14T13:45:04.070Z,39.1
2022-08-14T13:46:07.229Z,39.3
2022-08-14T13:47:14.420Z,39.3
2022-08-14T13:48:36.925Z,39.4
2022-08-14T13:49:58.671Z,39.4
2022-08-14T13:51:03.288Z,39.4
2022-08-14T13:52:55.363Z,39.5
2022-08-14T13:54:12.124Z,39.5
2022-08-14T13:55:14.772Z,39.5
2022-08-14T13:56:37.436Z,39.4
2022-08-14T13:58:05.343Z,39.4
2022-08-14T13:59:43.208Z,39.4
2022-08-14T14:00:55.840Z,39.2
2022-08-14T14:01:59.102Z,39.2
2022-08-14T14:03:02.186Z,39.2
2022-08-14T14:04:11.806Z,39.1
2022-08-14T14:05:23.513Z,39.1
2022-08-14T14:06:25.534Z,39.1
2022-08-14T14:07:32.798Z,39.1
2022-08-14T14:08:48.277Z,39.2
2022-08-14T14:09:54.064Z,39.2
2022-08-14T14:10:57.005Z,39.3
2022-08-14T14:12:00.746Z,39.3
2022-08-14T14:13:06.373Z,39.4
2022-08-14T14:14:54.417Z,39.5
2022-08-14T14:15:59.823Z,39.5
2022-08-14T14:17:02.110Z,39.6
2022-08-14T14:18:35.814Z,39.6
2022-08-14T14:19:54.116Z,39.6
2022-08-14T14:20:56.781Z,39.7
2022-08-14T14:21:59.005Z,39.7
2022-08-14T14:23:11.885Z,39.7
2022-08-14T14:24:20.620Z,39.7
2022-08-14T14:25:23.909Z,39.6
2022-08-14T14:26:26.957Z,39.6
2022-08-14T14:27:42.465Z,39.6
2022-08-14T14:28:45.322Z,39.6
2022-08-14T14:29:55.856Z,39.6
2022-08-14T14:31:07.792Z,39.5
2022-08-14T14:32:22.519Z,39.5
2022-08-14T14:33:51.201Z,39.4
2022-08-14T14:35:00.281Z,39.5
2022-08-14T14:36:05.316Z,39.5
2022-08-14T14:37:12.574Z,39.5
2022-08-14T14:38:17.481Z,39.5
2022-08-14T14:41:01.379Z,39.6
2022-08-14T14:42:07.344Z,39.6
2022-08-14T14:43:36.324Z,39.7
2022-08-14T14:44:57.419Z,39.7
2022-08-14T14:45:59.213Z,39.7
2022-08-14T14:47:08.633Z,39.7
2022-08-14T14:48:16.479Z,39.7
2022-08-14T14:49:42.251Z,39.6
2022-08-14T14:50:59.273Z,39.6
2022-08-14T14:52:01.329Z,39.6
2022-08-14T14:53:14.140Z,39.6
2022-08-14T14:54:19.605Z,39.6
2022-08-14T14:56:54.039Z,39.5
2022-08-14T14:57:56.530Z,39.6
2022-08-14T14:58:59.035Z,39.6
2022-08-14T15:00:02.640Z,39.7
2022-08-14T15:01:11.369Z,39.7
2022-08-14T15:02:17.965Z,39.7
2022-08-14T15:03:20.840Z,39.6
2022-08-14T15:04:23.884Z,39.7
2022-08-14T15:05:33.986Z,39.7
2022-08-14T15:06:48.693Z,39.7
2022-08-14T15:07:53.829Z,39.8
2022-08-14T15:09:00.887Z,39.8
2022-08-14T15:10:39.953Z,39.8
2022-08-14T15:11:55.535Z,39.8
2022-08-14T15:13:05.921Z,40
2022-08-14T15:15:09.438Z,40
2022-08-14T15:16:17.735Z,40.1
2022-08-14T15:17:21.150Z,40.1
2022-08-14T15:18:49.389Z,40.1
2022-08-14T15:19:58.035Z,40.1
2022-08-14T15:21:01.230Z,40.1
2022-08-14T15:22:04.339Z,40.1
2022-08-14T15:23:13.341Z,40.1
2022-08-14T15:24:27.390Z,40.1
2022-08-14T15:25:29.746Z,40.1
2022-08-14T15:26:34.156Z,40.2
2022-08-14T15:27:50.400Z,40.2
2022-08-14T15:29:06.770Z,40.2
2022-08-14T15:30:11.730Z,40.3
2022-08-14T15:31:37.446Z,40.4
2022-08-14T15:32:43.123Z,40.5
2022-08-14T15:34:53.162Z,40.5
2022-08-14T15:36:02.009Z,40.5
2022-08-14T15:37:34.390Z,40.5
2022-08-14T15:38:45.731Z,40.6
2022-08-14T15:39:53.797Z,40.6
2022-08-14T15:40:56.900Z,40.6
2022-08-14T15:41:58.735Z,40.6
2022-08-14T15:43:02.236Z,40.7
2022-08-14T15:44:34.477Z,40.7
2022-08-14T15:46:05.690Z,40.7
2022-08-14T15:47:52.419Z,40.8
2022-08-14T15:48:56.559Z,40.9
2022-08-14T15:50:01.486Z,40.9
2022-08-14T15:51:05.082Z,41
2022-08-14T15:52:13.819Z,41
2022-08-14T15:53:52.528Z,41
2022-08-14T15:54:54.887Z,41.1
2022-08-14T15:55:58.409Z,41.2
2022-08-14T15:57:01.266Z,41.2
2022-08-14T15:58:15.258Z,41.3
2022-08-14T15:59:27.322Z,41.3
2022-08-14T16:00:51.777Z,41.3
2022-08-14T16:01:56.393Z,41.2
2022-08-14T16:03:01.092Z,41.2
2022-08-14T16:04:03.703Z,41.2
2022-08-14T16:05:25.992Z,41.2
2022-08-14T16:06:46.847Z,41.2
2022-08-14T16:07:58.420Z,41.2
2022-08-14T16:09:13.526Z,41.2
2022-08-14T16:10:31.068Z,41.2
2022-08-14T16:11:47.615Z,41.2
2022-08-14T16:12:56.593Z,41.2
2022-08-14T16:14:02.137Z,41.1
2022-08-14T16:15:10.672Z,41.1
2022-08-14T16:17:01.147Z,41.1
2022-08-14T16:18:19.105Z,41.1
2022-08-14T16:19:23.869Z,41.1
2022-08-14T16:20:45.717Z,41.1
2022-08-14T16:23:00.914Z,41.1
2022-08-14T16:24:03.226Z,41.1
2022-08-14T16:25:05.935Z,41
2022-08-14T16:26:20.032Z,41
2022-08-14T16:27:43.755Z,41
2022-08-14T16:28:52.875Z,40.9
2022-08-14T16:29:56.314Z,40.9
2022-08-14T16:30:58.387Z,40.8
2022-08-14T16:32:56.882Z,40.8
2022-08-14T16:34:55.821Z,40.7
2022-08-14T16:36:01.472Z,40.6
2022-08-14T16:37:35.895Z,40.5
2022-08-14T16:38:48.769Z,40.5
2022-08-14T16:39:56.685Z,40.4
2022-08-14T16:41:01.945Z,40.4
2022-08-14T16:43:13.872Z,40.4
2022-08-14T16:44:34.222Z,40.3
2022-08-14T16:45:44.774Z,40.1
2022-08-14T16:46:59.781Z,40
2022-08-14T16:48:01.905Z,39.9
2022-08-14T16:49:04.310Z,39.8
2022-08-14T16:50:10.150Z,39.7
2022-08-14T16:51:53.260Z,39.6
2022-08-14T16:53:01.697Z,39.5
2022-08-14T16:54:45.314Z,39.4
2022-08-14T16:55:56.472Z,39.4
2022-08-14T16:57:02.249Z,39.3
2022-08-14T16:58:11.157Z,39.3
2022-08-14T16:59:59.029Z,39.2
2022-08-14T17:01:29.090Z,39.2
2022-08-14T17:02:33.622Z,39.1